Time;durP1;ratioP1;P1;durP2;ratioP2;P2;SDS_P1;SDS_P2;PMS_P1;PMS_P2;Temp;Humidity;BMP_temperature;BMP_pressure;BME280_temperature;BME280_humidity;BME280_pressure;Samples;Min_cycle;Max_cycle;Signal;HPM_P1;HPM_P2
2021/08/25 00:00:10;;;;;;;4.07;2.20;;;21.00;67.20;;;;;;10373629;28;20165;-51
2021/08/25 00:05:11;;;;;;;4.93;3.10;;;21.00;67.10;;;;;;10373528;28;20359;-51
2021/08/25 00:10:12;;;;;;;4.68;3.10;;;21.00;67.10;;;;;;10373332;28;20029;-50
2021/08/25 00:15:13;;;;;;;3.28;2.35;;;21.00;67.10;;;;;;10373605;28;20501;-48
2021/08/25 00:20:13;;;;;;;3.83;2.58;;;20.90;67.00;;;;;;10345292;28;20030;-49
2021/08/25 00:25:14;;;;;;;4.03;2.75;;;21.00;67.00;;;;;;10332171;28;20446;-49
2021/08/25 00:30:15;;;;;;;4.35;2.72;;;20.90;67.00;;;;;;10332320;28;20365;-48
2021/08/25 00:35:16;;;;;;;4.05;2.80;;;20.90;66.70;;;;;;10332145;28;20118;-47
2021/08/25 00:40:17;;;;;;;4.20;2.88;;;21.00;66.80;;;;;;10332571;28;20037;-48
2021/08/25 00:45:17;;;;;;;5.90;2.88;;;20.90;66.80;;;;;;10331851;28;20474;-49
2021/08/25 00:50:18;;;;;;;4.13;3.13;;;20.90;66.80;;;;;;10331979;28;20161;-48
2021/08/25 00:55:19;;;;;;;3.63;2.38;;;20.90;66.80;;;;;;10343673;28;20041;-48
2021/08/25 01:00:19;;;;;;;5.25;3.30;;;20.90;66.80;;;;;;10337590;28;20101;-47
2021/08/25 01:05:21;;;;;;;3.88;2.88;;;20.90;66.80;;;;;;10340024;28;20041;-48
2021/08/25 01:10:29;;;;;;;4.22;2.70;;;20.90;66.80;;;;;;10338461;28;20039;-48
2021/08/25 01:15:40;;;;;;;5.33;3.43;;;20.90;66.70;;;;;;10338502;28;20034;-50
2021/08/25 01:20:46;;;;;;;2.58;2.17;;;20.90;66.70;;;;;;10339628;28;20034;-50
2021/08/25 01:25:55;;;;;;;5.15;3.30;;;20.90;66.70;;;;;;10337666;28;20046;-51
2021/08/25 01:30:56;;;;;;;3.57;2.73;;;20.90;66.70;;;;;;10337610;28;20061;-49
2021/08/25 01:35:57;;;;;;;3.90;2.60;;;20.80;66.60;;;;;;10338581;28;20038;-47
2021/08/25 01:40:57;;;;;;;4.20;2.88;;;20.80;66.60;;;;;;10338312;28;20121;-47
2021/08/25 01:45:58;;;;;;;4.95;3.13;;;20.80;66.60;;;;;;10338194;28;20034;-49
2021/08/25 01:51:00;;;;;;;4.57;3.45;;;20.80;66.60;;;;;;10337972;28;20108;-48
2021/08/25 01:56:00;;;;;;;4.07;2.53;;;20.80;66.70;;;;;;10337679;28;20026;-49
2021/08/25 02:01:01;;;;;;;3.90;2.72;;;20.80;66.50;;;;;;10337592;28;20101;-48
2021/08/25 02:06:02;;;;;;;4.07;2.60;;;20.80;66.40;;;;;;10337306;28;20506;-48
2021/08/25 02:11:03;;;;;;;3.80;3.17;;;20.80;66.40;;;;;;10336843;28;20038;-48
2021/08/25 02:16:04;;;;;;;5.25;3.13;;;20.80;66.50;;;;;;10337406;28;20037;-48
2021/08/25 02:21:05;;;;;;;4.07;3.08;;;20.80;66.50;;;;;;10338845;28;20113;-48
2021/08/25 02:26:05;;;;;;;3.55;2.70;;;20.80;66.50;;;;;;10336526;28;20034;-47
2021/08/25 02:31:06;;;;;;;4.63;2.83;;;20.80;66.40;;;;;;10336524;28;20121;-48
2021/08/25 02:36:08;;;;;;;4.72;3.42;;;20.80;66.40;;;;;;10336641;28;20126;-47
2021/08/25 02:41:14;;;;;;;5.32;3.53;;;20.80;66.40;;;;;;10335926;28;20490;-50
2021/08/25 02:46:15;;;;;;;4.25;2.80;;;20.80;66.30;;;;;;10335844;28;20110;-48
2021/08/25 02:51:16;;;;;;;5.75;3.15;;;20.70;66.20;;;;;;10336282;28;20034;-48
2021/08/25 02:56:17;;;;;;;4.63;3.55;;;20.70;66.20;;;;;;10335464;28;20042;-48
2021/08/25 03:01:17;;;;;;;4.15;2.80;;;20.70;66.10;;;;;;10335217;28;20099;-50
2021/08/25 03:06:18;;;;;;;4.28;2.85;;;20.70;66.20;;;;;;10335131;28;20120;-48
2021/08/25 03:11:19;;;;;;;5.05;3.35;;;20.70;66.20;;;;;;10334894;28;20572;-49
2021/08/25 03:16:20;;;;;;;4.30;3.15;;;20.70;66.10;;;;;;10334561;28;20452;-50
2021/08/25 03:21:20;;;;;;;4.57;3.10;;;20.70;66.10;;;;;;10335108;28;20517;-48
2021/08/25 03:26:21;;;;;;;5.22;3.10;;;20.70;66.10;;;;;;10333337;28;20054;-51
2021/08/25 03:31:22;;;;;;;4.93;3.08;;;20.70;66.10;;;;;;10356765;28;20459;-48
2021/08/25 03:36:22;;;;;;;3.63;2.70;;;20.70;66.00;;;;;;10374593;28;20030;-49
2021/08/25 03:41:23;;;;;;;4.78;3.13;;;20.70;65.90;;;;;;10374136;28;20117;-51
2021/08/25 03:46:24;;;;;;;4.90;3.08;;;20.70;65.80;;;;;;10374099;28;20040;-48
2021/08/25 03:51:24;;;;;;;5.63;3.17;;;20.60;65.60;;;;;;10373900;28;20036;-49
2021/08/25 03:56:25;;;;;;;5.03;3.33;;;20.70;65.60;;;;;;10373682;28;20509;-51
2021/08/25 04:01:26;;;;;;;4.97;2.92;;;20.60;65.50;;;;;;10373645;28;20065;-50
2021/08/25 04:06:27;;;;;;;4.40;3.40;;;20.60;65.50;;;;;;10373470;28;20057;-51
2021/08/25 04:11:27;;;;;;;3.85;2.47;;;20.60;65.50;;;;;;10373402;28;20068;-51
2021/08/25 04:16:29;;;;;;;4.07;2.97;;;20.60;65.30;;;;;;10373646;28;20034;-48
2021/08/25 04:21:29;;;;;;;4.18;3.10;;;20.60;65.20;;;;;;10334995;28;20030;-48
2021/08/25 04:26:30;;;;;;;4.35;3.03;;;20.60;65.20;;;;;;10330967;28;20034;-47
2021/08/25 04:31:31;;;;;;;5.30;3.85;;;20.60;65.00;;;;;;10331009;28;20121;-48
2021/08/25 04:36:31;;;;;;;3.25;2.67;;;20.60;65.00;;;;;;10330372;28;20113;-48
2021/08/25 04:41:32;;;;;;;4.28;3.10;;;20.50;64.90;;;;;;10360050;28;20053;-48
2021/08/25 04:46:33;;;;;;;4.88;3.25;;;20.60;64.90;;;;;;10373046;28;20048;-49
2021/08/25 04:51:33;;;;;;;4.13;2.80;;;20.50;64.70;;;;;;10373217;28;20106;-48
2021/08/25 04:56:34;;;;;;;3.70;2.75;;;20.50;64.50;;;;;;10372823;28;20133;-48
2021/08/25 05:01:35;;;;;;;5.60;2.85;;;20.50;64.50;;;;;;10372733;28;20048;-47
2021/08/25 05:06:39;;;;;;;4.72;2.75;;;20.50;64.50;;;;;;10371509;28;20037;-46
2021/08/25 05:11:40;;;;;;;3.90;2.90;;;20.50;64.50;;;;;;10373555;28;20037;-47
2021/08/25 05:16:40;;;;;;;4.10;2.58;;;20.50;64.50;;;;;;10371489;28;20087;-46
2021/08/25 05:21:41;;;;;;;4.45;2.95;;;20.50;64.50;;;;;;10331797;28;20102;-48
2021/08/25 05:26:41;;;;;;;4.45;3.05;;;20.50;64.80;;;;;;10331732;28;20122;-48
2021/08/25 05:31:42;;;;;;;3.72;2.58;;;20.50;64.80;;;;;;10331686;28;20058;-48
2021/08/25 05:36:43;;;;;;;4.13;3.13;;;20.40;64.90;;;;;;10331559;28;20112;-51
2021/08/25 05:41:44;;;;;;;4.20;2.63;;;20.50;65.00;;;;;;10331146;28;20455;-50
2021/08/25 05:46:44;;;;;;;5.20;2.88;;;20.50;64.90;;;;;;10337569;28;20058;-51
2021/08/25 05:51:45;;;;;;;4.07;2.78;;;20.50;64.90;;;;;;10338304;28;20034;-51
2021/08/25 05:56:45;;;;;;;3.20;2.45;;;20.50;65.00;;;;;;10338472;28;20066;-51
2021/08/25 06:01:46;;;;;;;4.22;2.80;;;20.40;65.00;;;;;;10350102;28;20036;-47
2021/08/25 06:06:47;;;;;;;6.15;2.83;;;20.50;65.10;;;;;;10337839;28;20065;-51
2021/08/25 06:11:48;;;;;;;4.68;2.67;;;20.40;65.20;;;;;;10337660;28;20403;-49
2021/08/25 06:16:48;;;;;;;4.15;2.90;;;20.50;65.20;;;;;;10337417;28;20388;-47
2021/08/25 06:21:49;;;;;;;3.65;2.60;;;20.40;65.40;;;;;;10339265;28;20050;-49
2021/08/25 06:26:50;;;;;;;3.78;2.35;;;20.40;65.40;;;;;;10337322;28;20049;-47
2021/08/25 06:31:50;;;;;;;4.60;3.15;;;20.40;65.40;;;;;;10336883;28;20458;-48
2021/08/25 06:36:51;;;;;;;3.22;2.53;;;20.40;65.60;;;;;;10336841;28;20113;-47
2021/08/25 06:41:52;;;;;;;4.65;2.80;;;20.40;65.60;;;;;;10336153;28;20492;-46
2021/08/25 06:46:52;;;;;;;3.72;2.65;;;20.40;65.70;;;;;;10336453;28;20069;-47
2021/08/25 06:51:53;;;;;;;4.95;2.70;;;20.40;65.80;;;;;;10336330;28;20446;-47
2021/08/25 06:56:54;;;;;;;4.53;3.10;;;20.40;66.40;;;;;;10334887;28;20173;-48
2021/08/25 07:01:55;;;;;;;3.63;2.83;;;20.40;65.80;;;;;;10335990;28;20058;-47
2021/08/25 07:06:55;;;;;;;4.63;2.80;;;20.40;65.90;;;;;;10335709;28;20034;-47
2021/08/25 07:11:56;;;;;;;4.35;3.35;;;20.40;66.00;;;;;;10335580;28;20137;-48
2021/08/25 07:16:57;;;;;;;4.85;2.80;;;20.40;66.10;;;;;;10336319;28;20038;-49
2021/08/25 07:21:57;;;;;;;4.07;3.00;;;20.40;66.20;;;;;;10337823;28;20109;-47
2021/08/25 07:26:58;;;;;;;3.30;2.40;;;20.40;66.20;;;;;;10335049;28;20120;-49
2021/08/25 07:32:02;;;;;;;4.55;3.00;;;20.40;66.40;;;;;;10334433;28;20044;-50
2021/08/25 07:37:03;;;;;;;3.08;2.20;;;20.40;66.60;;;;;;10334745;28;20061;-48
2021/08/25 07:42:04;;;;;;;3.75;2.85;;;20.40;66.70;;;;;;10334408;28;20157;-48
2021/08/25 07:47:05;;;;;;;4.28;2.60;;;20.40;66.80;;;;;;10333961;28;20475;-47
2021/08/25 07:52:06;;;;;;;3.75;3.20;;;20.40;66.40;;;;;;10334145;28;20503;-47
2021/08/25 07:57:07;;;;;;;4.78;3.00;;;20.40;65.90;;;;;;10333836;28;20034;-46
2021/08/25 08:02:07;;;;;;;3.22;2.83;;;20.40;66.00;;;;;;10333484;28;20034;-47
2021/08/25 08:07:08;;;;;;;4.15;2.75;;;20.40;66.20;;;;;;10333035;28;20073;-46
2021/08/25 08:12:09;;;;;;;4.05;2.80;;;20.40;66.20;;;;;;10332087;28;20113;-46
2021/08/25 08:17:09;;;;;;;3.88;2.80;;;20.40;66.90;;;;;;10335889;28;20402;-46
2021/08/25 08:22:10;;;;;;;3.65;2.35;;;20.40;66.30;;;;;;10333384;28;20079;-51
2021/08/25 08:27:11;;;;;;;2.72;2.10;;;20.50;66.30;;;;;;10344919;28;20098;-50
2021/08/25 08:32:12;;;;;;;5.57;2.35;;;20.50;66.40;;;;;;10333121;28;20045;-50
2021/08/25 08:37:12;;;;;;;4.03;2.60;;;20.50;66.30;;;;;;10331109;28;20085;-49
2021/08/25 08:42:28;;;;;;;3.50;2.40;;;20.50;66.20;;;;;;10332555;28;20085;-50
2021/08/25 08:47:30;;;;;;;3.67;2.80;;;20.60;66.30;;;;;;10332771;28;20042;-50
2021/08/25 08:52:30;;;;;;;2.97;2.05;;;20.60;66.30;;;;;;10332161;28;20033;-50
2021/08/25 08:57:31;;;;;;;3.47;2.22;;;20.60;66.40;;;;;;10332389;28;20114;-50
2021/08/25 09:02:46;;;;;;;2.72;2.03;;;20.60;66.70;;;;;;10330994;28;20038;-47
2021/08/25 09:08:00;;;;;;;3.03;1.80;;;20.70;66.30;;;;;;10344018;28;20085;-47
2021/08/25 09:13:08;;;;;;;4.20;2.38;;;20.60;66.90;;;;;;10332467;28;20026;-50
2021/08/25 09:18:14;;;;;;;2.72;1.92;;;20.70;66.40;;;;;;10334806;28;20053;-49
2021/08/25 09:23:18;;;;;;;3.17;2.08;;;20.70;66.40;;;;;;10339748;28;20030;-48
2021/08/25 09:28:28;;;;;;;2.55;2.05;;;20.70;66.30;;;;;;10339464;28;20502;-49
2021/08/25 09:33:42;;;;;;;3.20;2.22;;;20.70;66.30;;;;;;10365959;28;20358;-47
2021/08/25 09:38:55;;;;;;;3.63;2.10;;;20.70;66.90;;;;;;10379782;28;20035;-46
2021/08/25 09:43:56;;;;;;;2.85;2.20;;;20.80;66.30;;;;;;10378115;28;20425;-47
2021/08/25 09:48:59;;;;;;;3.17;2.13;;;20.80;66.40;;;;;;10364748;28;20028;-47
2021/08/25 09:54:15;;;;;;;2.90;1.95;;;20.80;66.50;;;;;;10379194;28;20455;-46
2021/08/25 09:59:17;;;;;;;2.63;1.70;;;20.80;66.40;;;;;;10378774;28;20061;-47
2021/08/25 10:04:18;;;;;;;3.63;2.17;;;20.80;66.50;;;;;;10378576;28;20482;-47
2021/08/25 10:09:19;;;;;;;4.00;2.30;;;20.90;66.50;;;;;;10378420;28;20029;-46
2021/08/25 10:14:20;;;;;;;2.75;1.92;;;20.90;66.50;;;;;;10378771;28;20030;-47
2021/08/25 10:19:25;;;;;;;3.15;2.00;;;20.90;66.70;;;;;;10357427;28;20084;-46
2021/08/25 10:24:26;;;;;;;2.90;2.10;;;20.90;66.50;;;;;;10337344;28;20037;-48
2021/08/25 10:29:29;;;;;;;2.78;1.88;;;20.90;66.50;;;;;;10336968;28;20060;-50
2021/08/25 10:34:33;;;;;;;2.58;2.05;;;20.90;66.50;;;;;;10336983;28;20026;-49
2021/08/25 10:39:36;;;;;;;2.88;1.90;;;21.00;66.50;;;;;;10336962;28;20041;-49
2021/08/25 10:44:49;;;;;;;2.92;1.90;;;21.00;66.50;;;;;;10336581;28;20487;-47
2021/08/25 10:49:50;;;;;;;3.05;2.10;;;21.10;66.50;;;;;;10364830;28;20034;-50
2021/08/25 10:54:51;;;;;;;2.63;2.35;;;21.10;66.50;;;;;;10376909;28;20037;-49
2021/08/25 11:00:05;;;;;;;2.25;1.65;;;21.10;66.50;;;;;;10376673;28;20080;-50
2021/08/25 11:05:07;;;;;;;3.13;2.15;;;21.20;66.50;;;;;;10376519;28;20065;-46
2021/08/25 11:10:08;;;;;;;2.83;2.20;;;21.20;66.50;;;;;;10376092;28;20064;-47
2021/08/25 11:15:09;;;;;;;3.13;2.67;;;21.20;66.40;;;;;;10375996;28;20109;-51
2021/08/25 11:20:10;;;;;;;3.75;2.35;;;21.30;66.40;;;;;;10348727;28;20026;-50
2021/08/25 11:25:16;;;;;;;3.90;2.90;;;21.30;66.40;;;;;;10335036;28;20037;-48
2021/08/25 11:30:24;;;;;;;3.10;2.25;;;21.20;66.50;;;;;;10336729;28;20034;-47
2021/08/25 11:35:31;;;;;;;3.38;2.00;;;21.20;66.80;;;;;;10334727;28;20034;-46
2021/08/25 11:40:31;;;;;;;3.05;2.10;;;21.20;66.70;;;;;;10333856;28;20058;-47
2021/08/25 11:45:32;;;;;;;3.08;2.55;;;21.30;66.60;;;;;;10333859;28;20455;-48
2021/08/25 11:50:44;;;;;;;2.42;1.98;;;21.30;66.60;;;;;;10334704;28;20057;-48
2021/08/25 11:55:47;;;;;;;3.38;2.15;;;21.40;66.60;;;;;;10332824;28;20394;-46
2021/08/25 12:00:48;;;;;;;4.00;2.22;;;21.40;66.60;;;;;;10332470;28;20038;-47
2021/08/25 12:05:55;;;;;;;3.38;2.13;;;21.40;66.60;;;;;;10332755;28;20026;-48
2021/08/25 12:11:08;;;;;;;3.03;2.22;;;21.40;66.50;;;;;;10333582;28;20080;-47
2021/08/25 12:16:27;;;;;;;2.80;1.88;;;21.40;66.50;;;;;;10333160;28;20031;-47
2021/08/25 12:21:37;;;;;;;3.00;2.10;;;21.40;66.40;;;;;;10335497;28;20121;-47
2021/08/25 12:26:51;;;;;;;4.05;2.45;;;21.50;66.50;;;;;;10341417;28;20041;-46
2021/08/25 12:31:59;;;;;;;2.95;2.08;;;21.40;66.50;;;;;;10332898;28;20038;-46
2021/08/25 12:37:01;;;;;;;3.53;2.22;;;21.40;66.40;;;;;;10332945;28;20141;-50
2021/08/25 12:42:02;;;;;;;3.72;2.50;;;21.40;66.60;;;;;;10332358;28;20066;-49
2021/08/25 12:47:05;;;;;;;3.50;2.22;;;21.40;66.70;;;;;;10331280;28;20418;-47
2021/08/25 12:52:06;;;;;;;3.20;2.03;;;21.30;66.70;;;;;;10333169;28;20035;-49
2021/08/25 12:57:06;;;;;;;2.67;1.85;;;21.30;67.00;;;;;;10340600;28;20034;-47
2021/08/25 13:02:07;;;;;;;3.25;2.22;;;21.40;67.00;;;;;;10340350;28;20121;-48
2021/08/25 13:07:11;;;;;;;3.58;2.15;;;21.30;66.90;;;;;;10340403;28;20030;-49
2021/08/25 13:12:12;;;;;;;3.63;2.63;;;21.40;66.90;;;;;;10340091;28;20065;-47
2021/08/25 13:17:13;;;;;;;4.22;2.85;;;21.40;67.00;;;;;;10342499;28;20029;-50
2021/08/25 13:22:13;;;;;;;3.60;2.45;;;21.40;67.00;;;;;;10339765;28;20493;-47
2021/08/25 13:27:14;;;;;;;3.88;2.22;;;21.40;66.90;;;;;;10339705;28;20506;-47
2021/08/25 13:32:15;;;;;;;3.47;2.63;;;21.40;67.00;;;;;;10339102;28;20134;-47
2021/08/25 13:37:15;;;;;;;2.65;1.98;;;21.40;67.00;;;;;;10338117;28;20113;-48
2021/08/25 13:42:16;;;;;;;2.40;1.77;;;21.40;67.00;;;;;;10339108;28;20141;-47
2021/08/25 13:47:16;;;;;;;3.90;2.70;;;21.40;67.00;;;;;;10338887;28;20037;-48
2021/08/25 13:52:17;;;;;;;3.00;2.25;;;21.30;67.10;;;;;;10338473;28;20113;-48
2021/08/25 13:57:18;;;;;;;2.72;1.92;;;21.40;67.10;;;;;;10337995;28;20058;-47
2021/08/25 14:02:19;;;;;;;2.85;2.03;;;21.40;67.20;;;;;;10338451;28;20467;-47
2021/08/25 14:07:19;;;;;;;2.58;1.85;;;21.40;67.20;;;;;;10337721;28;20019;-49
2021/08/25 14:12:20;;;;;;;3.45;2.47;;;21.40;67.20;;;;;;10337991;28;20062;-47
2021/08/25 14:17:21;;;;;;;2.97;2.13;;;21.30;67.10;;;;;;10339764;28;20537;-46
2021/08/25 14:22:21;;;;;;;3.22;1.90;;;21.40;67.20;;;;;;10337762;28;20038;-46
2021/08/25 14:27:22;;;;;;;3.08;2.17;;;21.40;67.20;;;;;;10337562;28;20058;-47
2021/08/25 14:32:23;;;;;;;3.45;2.30;;;21.40;67.30;;;;;;10348739;28;20710;-48
2021/08/25 14:37:23;;;;;;;2.83;1.90;;;21.40;67.30;;;;;;10337114;28;20058;-47
2021/08/25 14:42:24;;;;;;;3.13;2.17;;;21.40;67.30;;;;;;10336767;28;20074;-48
2021/08/25 14:47:25;;;;;;;2.85;2.13;;;21.40;67.30;;;;;;10335574;28;20034;-46
2021/08/25 14:52:25;;;;;;;3.00;2.30;;;21.30;67.20;;;;;;10337001;28;20026;-51
2021/08/25 14:57:26;;;;;;;2.65;1.60;;;21.40;67.20;;;;;;10361186;28;20066;-48
2021/08/25 15:02:27;;;;;;;2.65;1.83;;;21.30;67.20;;;;;;10336050;28;20059;-50
2021/08/25 15:07:27;;;;;;;3.08;2.15;;;21.30;67.30;;;;;;10336028;28;20034;-48
2021/08/25 15:12:28;;;;;;;2.83;2.00;;;21.30;67.10;;;;;;10335644;28;20041;-50
2021/08/25 15:17:29;;;;;;;3.05;1.98;;;21.30;67.20;;;;;;10348488;28;20026;-47
2021/08/25 15:22:29;;;;;;;3.65;2.17;;;21.30;67.20;;;;;;10334074;28;20464;-48
2021/08/25 15:27:30;;;;;;;2.95;2.05;;;21.30;67.20;;;;;;10333588;28;20064;-48
2021/08/25 15:32:30;;;;;;;2.95;1.85;;;21.30;67.20;;;;;;10334835;28;20066;-51
2021/08/25 15:37:32;;;;;;;3.08;2.05;;;21.20;67.20;;;;;;10335033;28;20037;-48
2021/08/25 15:42:33;;;;;;;2.65;2.03;;;21.30;67.30;;;;;;10334867;28;20046;-48
2021/08/25 15:47:34;;;;;;;3.28;1.85;;;21.30;67.40;;;;;;10333069;28;20387;-49
2021/08/25 15:52:36;;;;;;;3.42;2.22;;;21.30;67.40;;;;;;10334204;28;20027;-47
2021/08/25 15:57:37;;;;;;;2.40;1.58;;;21.30;67.50;;;;;;10333979;28;20069;-50
2021/08/25 16:02:38;;;;;;;3.88;2.25;;;21.20;67.50;;;;;;10333708;28;20029;-47
2021/08/25 16:07:38;;;;;;;2.22;1.58;;;21.30;67.60;;;;;;10333656;28;20480;-51
2021/08/25 16:12:39;;;;;;;2.45;1.83;;;21.20;67.60;;;;;;10334055;28;20117;-49
2021/08/25 16:17:40;;;;;;;2.40;1.75;;;21.20;67.60;;;;;;10335465;28;20069;-48
2021/08/25 16:22:41;;;;;;;2.78;1.73;;;21.20;67.60;;;;;;10359339;28;20038;-47
2021/08/25 16:27:42;;;;;;;1.88;1.52;;;21.20;67.60;;;;;;10352913;28;20104;-47
2021/08/25 16:32:42;;;;;;;2.35;1.75;;;21.20;67.70;;;;;;10373445;28;20077;-47
2021/08/25 16:37:43;;;;;;;2.85;2.10;;;21.20;67.70;;;;;;10373607;28;20083;-47
2021/08/25 16:42:44;;;;;;;2.40;1.40;;;21.20;67.70;;;;;;10373089;28;20141;-47
2021/08/25 16:47:44;;;;;;;1.83;1.35;;;21.20;67.80;;;;;;10373076;28;20108;-49
2021/08/25 16:52:45;;;;;;;1.75;1.40;;;21.20;67.70;;;;;;10373075;28;20367;-46
2021/08/25 16:57:46;;;;;;;2.40;1.70;;;21.20;67.80;;;;;;10329301;28;20034;-48
2021/08/25 17:02:47;;;;;;;1.90;1.35;;;21.20;67.90;;;;;;10373140;28;20050;-51
2021/08/25 17:07:47;;;;;;;1.80;1.30;;;21.20;67.80;;;;;;10372717;28;20482;-47
2021/08/25 17:12:48;;;;;;;2.42;1.42;;;21.20;67.80;;;;;;10372845;28;20113;-48
2021/08/25 17:17:49;;;;;;;2.30;1.60;;;21.20;67.90;;;;;;10364377;28;20030;-49
2021/08/25 17:22:50;;;;;;;2.17;1.35;;;21.20;67.80;;;;;;10330650;28;20038;-49
2021/08/25 17:27:51;;;;;;;4.50;1.63;;;21.20;67.90;;;;;;10331926;28;20037;-50
2021/08/25 17:32:52;;;;;;;1.85;1.30;;;21.20;67.90;;;;;;10331582;28;20542;-49
2021/08/25 17:37:53;;;;;;;2.25;1.52;;;21.20;67.90;;;;;;10331785;28;20062;-49
2021/08/25 17:42:53;;;;;;;1.80;1.20;;;21.20;67.90;;;;;;10337437;28;20499;-48
2021/08/25 17:47:54;;;;;;;1.60;1.05;;;21.10;67.80;;;;;;10338592;28;20484;-48
2021/08/25 17:52:59;;;;;;;1.50;1.23;;;21.20;67.80;;;;;;10338879;28;20066;-48
2021/08/25 17:58:00;;;;;;;2.60;1.52;;;21.10;67.70;;;;;;10338294;28;20034;-48
2021/08/25 18:03:00;;;;;;;1.52;1.20;;;21.10;67.70;;;;;;10338392;28;20058;-50
2021/08/25 18:08:01;;;;;;;2.65;1.30;;;21.20;67.70;;;;;;10350309;28;20039;-47
2021/08/25 18:13:03;;;;;;;1.42;1.10;;;21.10;67.70;;;;;;10337970;28;20058;-47
2021/08/25 18:18:05;;;;;;;2.40;1.40;;;21.10;67.70;;;;;;10340749;28;20129;-47
2021/08/25 18:23:05;;;;;;;1.85;1.40;;;21.10;67.60;;;;;;10337660;28;20026;-50
2021/08/25 18:28:06;;;;;;;1.73;1.35;;;21.10;67.70;;;;;;10337617;28;20114;-47
2021/08/25 18:33:07;;;;;;;1.88;1.02;;;21.10;67.70;;;;;;10337186;28;20069;-49
2021/08/25 18:38:07;;;;;;;2.97;1.50;;;21.10;67.70;;;;;;10336981;28;20387;-51
2021/08/25 18:43:08;;;;;;;1.83;1.40;;;21.10;67.70;;;;;;10336843;28;20451;-48
2021/08/25 18:48:09;;;;;;;2.20;1.42;;;21.10;67.60;;;;;;10336571;28;20053;-47
2021/08/25 18:53:09;;;;;;;1.92;1.48;;;21.10;67.70;;;;;;10348483;28;20125;-47
2021/08/25 18:58:10;;;;;;;2.42;1.63;;;21.10;67.70;;;;;;10336476;28;20034;-48
2021/08/25 19:03:11;;;;;;;2.00;1.30;;;21.10;67.70;;;;;;10336120;28;20049;-49
2021/08/25 19:08:12;;;;;;;2.20;1.30;;;21.10;67.80;;;;;;10335877;28;20560;-47
2021/08/25 19:13:12;;;;;;;1.67;1.33;;;21.10;67.80;;;;;;10336067;28;20092;-48
2021/08/25 19:18:13;;;;;;;1.77;1.42;;;21.10;67.70;;;;;;10337237;28;20035;-47
2021/08/25 19:23:14;;;;;;;2.08;1.50;;;21.10;67.80;;;;;;10334710;28;20105;-47
2021/08/25 19:28:15;;;;;;;2.25;1.75;;;21.10;67.80;;;;;;10333692;28;20026;-47
2021/08/25 19:33:15;;;;;;;1.77;1.20;;;21.10;67.80;;;;;;10333970;28;20022;-46
2021/08/25 19:38:16;;;;;;;1.77;1.17;;;21.10;67.80;;;;;;10334072;28;20062;-46
2021/08/25 19:43:17;;;;;;;3.00;1.45;;;21.10;67.80;;;;;;10333718;28;20499;-47
2021/08/25 19:48:18;;;;;;;1.63;1.15;;;21.10;67.80;;;;;;10333756;28;20034;-51
2021/08/25 19:53:18;;;;;;;2.15;1.38;;;21.10;67.80;;;;;;10333602;28;20029;-49
2021/08/25 19:58:19;;;;;;;2.53;1.52;;;21.10;67.80;;;;;;10333332;28;20550;-50
2021/08/25 20:03:20;;;;;;;2.25;1.63;;;21.10;67.90;;;;;;10332050;28;20485;-49
2021/08/25 20:08:20;;;;;;;2.22;1.60;;;21.10;67.90;;;;;;10333016;28;20058;-47
2021/08/25 20:13:21;;;;;;;2.05;1.63;;;21.10;67.90;;;;;;10332901;28;20089;-50
2021/08/25 20:18:22;;;;;;;2.78;1.50;;;21.10;67.80;;;;;;10336246;28;20129;-50
2021/08/25 20:23:22;;;;;;;2.65;1.73;;;21.10;67.90;;;;;;10332594;28;20058;-46
2021/08/25 20:28:23;;;;;;;3.17;1.42;;;21.10;68.00;;;;;;10332623;28;20066;-51
2021/08/25 20:33:24;;;;;;;2.60;1.58;;;21.10;68.00;;;;;;10332215;28;20034;-47
2021/08/25 20:38:24;;;;;;;2.72;1.30;;;21.10;67.90;;;;;;10332264;28;20030;-48
2021/08/25 20:43:25;;;;;;;2.05;1.48;;;21.10;68.00;;;;;;10332124;28;20407;-49
2021/08/25 20:48:26;;;;;;;2.90;1.63;;;21.10;68.00;;;;;;10332043;28;20033;-47
2021/08/25 20:53:27;;;;;;;3.03;1.40;;;21.10;68.10;;;;;;10331969;28;20030;-46
2021/08/25 20:58:27;;;;;;;2.00;1.40;;;21.00;68.00;;;;;;10332260;28;20116;-47
2021/08/25 21:03:28;;;;;;;2.45;1.70;;;21.10;68.10;;;;;;10331965;28;20110;-47
2021/08/25 21:08:29;;;;;;;2.20;1.65;;;21.10;68.00;;;;;;10331744;28;20045;-49
2021/08/25 21:13:29;;;;;;;1.70;1.40;;;21.10;68.10;;;;;;10331602;28;20113;-47
2021/08/25 21:18:30;;;;;;;2.03;1.33;;;21.10;68.10;;;;;;10341700;28;20066;-48
2021/08/25 21:23:31;;;;;;;2.28;1.38;;;21.10;68.20;;;;;;10339352;28;20038;-46
2021/08/25 21:28:32;;;;;;;2.33;1.70;;;21.10;68.10;;;;;;10364221;28;20026;-48
2021/08/25 21:33:33;;;;;;;2.90;2.15;;;21.10;68.10;;;;;;10339085;28;20034;-47
2021/08/25 21:38:33;;;;;;;2.03;1.52;;;21.10;68.20;;;;;;10338701;28;20069;-48
2021/08/25 21:43:35;;;;;;;2.42;1.58;;;21.10;68.20;;;;;;10338391;28;20089;-48
2021/08/25 21:48:36;;;;;;;3.13;1.75;;;21.00;68.20;;;;;;10337323;28;20502;-48
2021/08/25 21:53:36;;;;;;;1.98;1.30;;;21.00;68.20;;;;;;10338256;28;20038;-48
2021/08/25 21:58:37;;;;;;;2.55;1.50;;;21.00;68.20;;;;;;10338154;28;20026;-47
2021/08/25 22:03:38;;;;;;;2.10;1.63;;;21.00;68.30;;;;;;10337832;28;20102;-48
2021/08/25 22:08:39;;;;;;;2.15;1.38;;;21.00;68.30;;;;;;10338460;28;20034;-50
2021/08/25 22:13:39;;;;;;;2.05;1.60;;;21.00;68.40;;;;;;10337449;28;20026;-48
2021/08/25 22:18:40;;;;;;;2.78;1.85;;;21.00;68.40;;;;;;10339432;28;20487;-50
2021/08/25 22:23:41;;;;;;;2.08;1.40;;;21.00;68.40;;;;;;10337277;28;20077;-49
2021/08/25 22:28:42;;;;;;;2.15;1.65;;;21.00;68.40;;;;;;10336445;28;20030;-50
2021/08/25 22:33:42;;;;;;;2.97;1.77;;;21.00;68.40;;;;;;10336917;28;20454;-49
2021/08/25 22:38:43;;;;;;;2.95;1.90;;;21.00;68.40;;;;;;10335193;28;20125;-49
2021/08/25 22:43:44;;;;;;;3.88;1.80;;;21.00;68.50;;;;;;10348038;28;20129;-50
2021/08/25 22:48:44;;;;;;;2.55;1.58;;;21.00;68.50;;;;;;10336041;28;20444;-47
2021/08/25 22:53:45;;;;;;;1.60;1.20;;;21.00;68.50;;;;;;10335967;28;20104;-48
2021/08/25 22:58:46;;;;;;;2.95;2.03;;;21.00;68.50;;;;;;10335923;28;20117;-48
2021/08/25 23:03:46;;;;;;;2.72;1.77;;;21.00;68.60;;;;;;10334404;28;20053;-50
2021/08/25 23:08:47;;;;;;;2.10;1.50;;;21.00;68.60;;;;;;10335308;28;20543;-46
2021/08/25 23:13:48;;;;;;;2.10;1.50;;;21.00;68.60;;;;;;10335677;28;20064;-51
2021/08/25 23:18:48;;;;;;;2.50;1.67;;;21.00;68.60;;;;;;10338580;28;20027;-47
2021/08/25 23:23:49;;;;;;;2.00;1.33;;;21.00;68.70;;;;;;10334633;28;20412;-47
2021/08/25 23:28:50;;;;;;;2.92;2.15;;;21.00;68.70;;;;;;10334540;28;20038;-46
2021/08/25 23:33:50;;;;;;;2.25;1.27;;;21.00;68.70;;;;;;10334804;28;20050;-46
2021/08/25 23:38:51;;;;;;;2.13;1.38;;;21.00;68.70;;;;;;10333448;28;20062;-47
2021/08/25 23:43:52;;;;;;;2.30;1.50;;;21.00;68.70;;;;;;10333944;28;20116;-46
2021/08/25 23:48:52;;;;;;;2.33;1.38;;;21.00;68.70;;;;;;10334255;28;20430;-47
2021/08/25 23:53:53;;;;;;;3.47;2.03;;;21.00;68.80;;;;;;10333745;28;20076;-47
2021/08/25 23:58:54;;;;;;;2.00;1.50;;;21.00;68.80;;;;;;10333869;28;20022;-47
